Time;durP1;ratioP1;P1;durP2;ratioP2;P2;SDS_P1;SDS_P2;PMS_P1;PMS_P2;Temp;Humidity;BMP_temperature;BMP_pressure;BME280_temperature;BME280_humidity;BME280_pressure;Samples;Min_cycle;Max_cycle;Signal;HPM_P1;HPM_P2
2021/12/07 00:01:43;;;;;;;24.10;14.60;;;;;;;8.36;83.08;99116.69;22059;1362;3055590;-71
2021/12/07 00:04:47;;;;;;;20.70;12.10;;;;;;;8.37;83.16;99111.57;21587;1362;3073400;-72
2021/12/07 00:08:17;;;;;;;19.50;10.90;;;;;;;9.15;80.95;99110.16;21602;1358;3051652;-72
2021/12/07 00:11:29;;;;;;;;;;;;;;;9.17;79.74;99095.71;21820;1360;3058282;-72
2021/12/07 00:14:15;;;;;;;23.80;13.80;;;;;;;8.71;81.47;99101.74;21977;1356;3056140;-71
2021/12/07 00:17:21;;;;;;;22.30;13.70;;;;;;;8.49;82.69;99107.73;22046;1360;3058846;-71
2021/12/07 00:20:26;;;;;;;20.80;12.10;;;;;;;8.37;83.76;99117.95;21749;1370;3053709;-73
2021/12/07 00:23:11;;;;;;;18.80;11.10;;;;;;;8.97;81.58;99119.29;21943;1364;3054315;-72
2021/12/07 00:25:48;;;;;;;23.00;12.80;;;;;;;9.04;81.20;99120.98;21822;1362;3055121;-72
2021/12/07 00:28:33;;;;;;;26.80;14.10;;;;;;;8.64;82.35;99120.34;21752;1357;3072401;-72
2021/12/07 00:31:23;;;;;;;23.00;13.60;;;;;;;8.67;82.35;99110.55;21709;1363;3052304;-71
2021/12/07 00:34:15;;;;;;;18.20;10.00;;;;;;;8.49;83.20;99104.39;21570;1365;3055178;-71
2021/12/07 00:36:54;;;;;;;20.40;12.50;;;;;;;8.86;82.45;99093.20;21778;1358;3058780;-71
2021/12/07 00:39:46;;;;;;;23.20;13.20;;;;;;;8.84;82.16;99092.28;21775;1364;3059647;-73
2021/12/07 00:43:08;;;;;;;24.00;13.60;;;;;;;8.91;82.03;99086.98;22005;1360;3052099;-72
2021/12/07 00:46:00;;;;;;;21.80;11.80;;;;;;;8.60;82.80;99086.30;21723;1367;3056393;-71
2021/12/07 00:49:05;;;;;;;17.30;9.70;;;;;;;8.57;83.37;99084.92;21521;1367;3053998;-72
2021/12/07 00:51:46;;;;;;;17.50;10.70;;;;;;;9.03;81.89;99089.39;21861;1365;3072553;-71
2021/12/07 00:54:27;;;;;;;19.80;10.80;;;;;;;9.25;80.54;99082.84;21778;1369;3052215;-71
2021/12/07 00:57:37;;;;;;;18.90;11.30;;;;;;;8.79;82.39;99089.44;21918;1369;3055003;-72
2021/12/07 01:00:21;;;;;;;18.30;11.50;;;;;;;8.78;82.38;99085.61;21665;1376;3053211;-70
2021/12/07 01:03:16;;;;;;;14.80;10.10;;;;;;;8.74;82.69;99087.59;21726;1370;3060074;-74
2021/12/07 01:06:05;;;;;;;23.80;11.40;;;;;;;9.37;80.84;99078.77;21705;1372;3052359;-71
2021/12/07 01:24:41;;;;;;;18.60;10.90;;;;;;;9.55;79.61;99053.33;21673;1370;3057085;-71
2021/12/07 01:27:33;;;;;;;21.00;11.20;;;;;;;9.34;80.31;99050.64;21787;1370;3059851;-70
2021/12/07 01:31:11;;;;;;;;;;;;;;;;;;;;;
2021/12/07 01:40:55;;;;;;;22.80;10.70;;;;;;;9.20;81.30;99033.64;21759;1357;3072975;-72
2021/12/07 02:02:28;;;;;;;18.70;10.70;;;;;;;8.66;84.44;99028.54;21893;1357;3052041;-71
2021/12/07 02:05:13;;;;;;;18.10;10.20;;;;;;;9.29;82.82;99025.60;21854;1361;3074118;-72
2021/12/07 02:07:55;;;;;;;19.10;11.50;;;;;;;9.46;81.29;99020.00;21876;1361;3051792;-72
2021/12/07 02:10:36;;;;;;;24.30;12.80;;;;;;;9.26;82.01;99027.33;21750;1362;3057795;-70
2021/12/07 02:16:31;;;;;;;16.80;10.40;;;;;;;8.79;84.29;99036.31;21567;1357;3062541;-69
2021/12/07 02:19:23;;;;;;;17.30;10.90;;;;;;;9.24;83.23;99029.25;21804;1360;3050795;-70
2021/12/07 02:22:11;;;;;;;20.10;9.70;;;;;;;9.22;82.66;99022.91;21942;1357;3055806;-70
2021/12/07 02:25:07;;;;;;;21.10;11.50;;;;;;;9.18;82.60;99024.86;21792;1361;3054665;-73
2021/12/07 02:27:56;;;;;;;18.70;11.20;;;;;;;8.90;83.80;99031.66;21939;1361;3070975;-70
2021/12/07 02:30:37;;;;;;;16.80;10.60;;;;;;;9.02;83.89;99017.96;21639;1360;3054211;-72
2021/12/07 02:33:55;;;;;;;15.90;9.00;;;;;;;9.36;82.75;99007.84;21697;1360;3054956;-70
2021/12/07 02:36:39;;;;;;;15.40;9.60;;;;;;;9.62;81.26;99008.70;21543;1369;3055604;-73
2021/12/07 02:39:20;;;;;;;16.70;10.10;;;;;;;9.45;81.85;99003.43;21916;1361;3061065;-71
2021/12/07 02:41:59;;;;;;;16.90;8.90;;;;;;;9.15;82.73;99013.70;21815;1353;3052964;-73
2021/12/07 02:44:57;;;;;;;15.60;8.20;;;;;;;9.13;83.29;99019.94;22008;1362;3056750;-71
2021/12/07 02:47:39;;;;;;;16.90;9.60;;;;;;;9.45;82.36;99018.52;21696;1360;3057279;-72
2021/12/07 02:50:45;;;;;;;14.40;9.00;;;;;;;9.57;81.64;99019.67;19634;1359;10408579;-72
2021/12/07 02:53:31;;;;;;;17.60;10.40;;;;;;;9.47;81.64;99022.05;21640;1359;3056486;-70
2021/12/07 02:56:32;;;;;;;16.30;9.90;;;;;;;9.13;83.41;99028.70;21914;1352;3059365;-72
2021/12/07 02:59:19;;;;;;;19.00;9.00;;;;;;;9.04;84.03;99033.23;21717;1360;3052929;-71
2021/12/07 03:02:26;;;;;;;15.60;9.00;;;;;;;9.76;81.30;99024.75;21635;1357;3055491;-73
2021/12/07 03:05:15;;;;;;;19.10;10.10;;;;;;;9.80;80.66;99036.55;23939;1357;3053336;-65
2021/12/07 03:27:26;;;;;;;12.80;7.50;;;;;;;9.55;81.74;99016.27;24474;1357;3051659;-65
2021/12/07 03:29:56;;;;;;;13.60;8.30;;;;;;;10.02;80.18;99002.64;24511;1361;3026372;-67
2021/12/07 03:32:25;;;;;;;15.70;9.00;;;;;;;10.22;79.31;99003.05;24491;1357;3026753;-66
2021/12/07 03:34:55;;;;;;;16.90;10.30;;;;;;;10.14;79.10;99003.42;24467;1357;3026418;-68
2021/12/07 03:37:24;;;;;;;17.60;10.20;;;;;;;9.82;80.27;99009.14;24565;1358;3027340;-65
2021/12/07 03:39:53;;;;;;;13.70;9.10;;;;;;;9.64;81.21;99007.86;24543;1356;3048504;-66
2021/12/07 03:42:22;;;;;;;12.10;7.50;;;;;;;9.54;81.49;99009.38;24472;1360;3026738;-68
2021/12/07 03:44:51;;;;;;;14.90;8.80;;;;;;;9.87;80.93;99013.01;24485;1358;3068182;-68
2021/12/07 03:47:20;;;;;;;13.80;9.60;;;;;;;10.03;79.89;99009.02;24453;1357;3026892;-68
2021/12/07 03:49:49;;;;;;;15.60;10.80;;;;;;;9.83;80.53;98998.57;24490;1359;3050840;-71
2021/12/07 03:55:10;;;;;;;15.50;10.30;;;;;;;9.48;81.63;99002.78;24897;1353;3053984;-68
2021/12/07 03:57:39;;;;;;;14.20;9.10;;;;;;;9.32;82.46;99014.41;24419;1361;3026557;-69
2021/12/07 04:04:58;;;;;;;16.00;9.50;;;;;;;10.11;79.50;99005.84;5619;1369;3087992;-71
2021/12/07 04:07:28;;;;;;;15.00;9.90;;;;;;;9.75;80.59;99032.70;24421;1364;3050822;-67
2021/12/07 04:09:58;;;;;;;16.70;9.90;;;;;;;9.43;82.07;99053.02;24348;1369;3027545;-65
2021/12/07 04:12:26;;;;;;;11.00;7.90;;;;;;;9.28;83.14;99035.95;24349;1368;3026610;-65
2021/12/07 04:14:56;;;;;;;12.30;8.30;;;;;;;9.78;81.75;99016.20;24353;1364;3050916;-66
2021/12/07 04:17:25;;;;;;;11.50;7.90;;;;;;;10.02;80.32;99011.19;24344;1368;3026824;-66
2021/12/07 04:19:54;;;;;;;11.90;8.20;;;;;;;9.99;80.19;99006.80;24284;1371;3055874;-65
2021/12/07 04:22:24;;;;;;;11.90;9.00;;;;;;;9.82;80.84;98996.92;24361;1367;3026706;-65
2021/12/07 04:24:53;;;;;;;10.60;7.50;;;;;;;9.65;81.34;98991.73;24323;1364;3026582;-66
2021/12/07 04:27:22;;;;;;;8.00;6.30;;;;;;;9.51;81.92;99004.14;24348;1367;3054890;-65
2021/12/07 04:29:51;;;;;;;10.00;6.50;;;;;;;9.67;81.77;98993.66;24396;1368;3027135;-65
2021/12/07 04:32:20;;;;;;;10.90;7.40;;;;;;;10.08;80.12;98999.04;24358;1368;3026871;-66
2021/12/07 04:34:51;;;;;;;10.60;7.50;;;;;;;9.92;80.47;98999.24;24355;1368;3055377;-65
2021/12/07 04:37:20;;;;;;;13.50;9.00;;;;;;;9.70;81.06;99019.52;24358;1362;3027358;-65
2021/12/07 04:39:49;;;;;;;13.80;9.00;;;;;;;9.51;81.91;99027.77;24383;1371;3051831;-67
2021/12/07 04:42:18;;;;;;;10.10;7.40;;;;;;;9.46;82.48;99023.88;24354;1368;3028620;-65
2021/12/07 04:44:53;;;;;;;10.30;7.20;;;;;;;9.94;80.90;99011.33;24327;1363;3058596;-65
2021/12/07 04:47:34;;;;;;;11.10;8.10;;;;;;;10.27;79.30;99010.23;24333;1367;3051894;-66
2021/12/07 04:58:11;;;;;;;11.00;8.40;;;;;;;9.68;80.95;99011.09;24376;1363;3052052;-66
2021/12/07 05:00:40;;;;;;;11.30;8.10;;;;;;;10.00;79.94;99006.05;24377;1364;3026831;-65
2021/12/07 05:03:12;;;;;;;11.50;8.90;;;;;;;10.00;79.87;99009.73;24347;1367;3070313;-66
2021/12/07 05:05:47;;;;;;;13.50;9.80;;;;;;;9.94;79.93;99010.48;24346;1369;3026643;-64
2021/12/07 05:08:29;;;;;;;15.60;10.50;;;;;;;9.71;80.62;99020.17;24389;1365;3052705;-66
2021/12/07 05:11:25;;;;;;;15.20;8.40;;;;;;;9.51;81.62;99036.67;24310;1367;3055757;-67
2021/12/07 05:14:11;;;;;;;13.10;8.10;;;;;;;9.95;80.38;99035.41;24413;1363;3058504;-68
2021/12/07 05:37:56;;;;;;;14.40;9.40;;;;;;;10.19;78.83;99024.92;5738;1369;3104909;-70
2021/12/07 05:40:32;;;;;;;13.80;9.80;;;;;;;9.76;80.31;99043.48;24377;1364;3049628;-66
2021/12/07 05:43:02;;;;;;;16.50;10.80;;;;;;;9.42;81.75;99054.84;24357;1365;3052705;-66
2021/12/07 05:45:35;;;;;;;12.30;8.20;;;;;;;9.47;81.95;99054.75;24381;1364;3026175;-67
2021/12/07 05:48:05;;;;;;;12.70;8.70;;;;;;;9.67;81.16;99065.35;24393;1364;3027642;-66
2021/12/07 05:50:37;;;;;;;13.50;9.80;;;;;;;10.17;79.82;99059.52;24341;1363;3026511;-68
2021/12/07 05:53:06;;;;;;;16.30;10.70;;;;;;;10.32;78.73;99053.68;24394;1363;3026901;-65
2021/12/07 05:55:36;;;;;;;16.80;11.80;;;;;;;10.01;79.50;99048.68;24365;1370;3026642;-67
2021/12/07 06:01:55;;;;;;;18.50;11.60;;;;;;;9.85;80.32;99041.28;24415;1367;3058003;-66
2021/12/07 06:04:24;;;;;;;15.40;10.90;;;;;;;10.21;79.06;99035.13;24305;1360;3028755;-68
2021/12/07 06:06:53;;;;;;;17.40;11.90;;;;;;;10.15;79.11;99034.63;24313;1364;3050735;-66
2021/12/07 06:09:22;;;;;;;21.00;13.50;;;;;;;10.18;78.84;99033.71;24400;1366;3026632;-67
2021/12/07 06:11:53;;;;;;;18.70;12.60;;;;;;;9.98;79.35;99027.88;24388;1361;3056150;-68
2021/12/07 06:14:29;;;;;;;18.60;13.10;;;;;;;9.96;79.32;99023.66;24333;1365;3028414;-66
2021/12/07 06:16:59;;;;;;;16.00;11.30;;;;;;;9.75;80.47;99023.04;24359;1362;3053076;-67
2021/12/07 06:19:28;;;;;;;20.00;11.90;;;;;;;10.04;79.38;99016.27;24325;1363;3026346;-66
2021/12/07 06:21:57;;;;;;;17.80;12.20;;;;;;;10.35;78.68;99013.23;24428;1367;3049138;-65
2021/12/07 06:24:26;;;;;;;18.30;12.80;;;;;;;10.20;78.68;99014.70;24410;1367;3026251;-67
2021/12/07 06:26:55;;;;;;;17.70;12.80;;;;;;;10.17;78.92;99010.90;24354;1367;3054920;-66
2021/12/07 06:29:24;;;;;;;18.70;13.30;;;;;;;9.90;79.44;99018.77;24281;1363;3026256;-69
2021/12/07 06:31:53;;;;;;;15.50;10.50;;;;;;;9.64;80.75;99021.11;24328;1369;3051278;-69
2021/12/07 06:34:22;;;;;;;17.50;11.40;;;;;;;10.09;79.53;99011.91;24353;1363;3026786;-67
2021/12/07 06:36:51;;;;;;;19.60;12.50;;;;;;;10.53;77.63;99002.23;24380;1373;3052843;-68
2021/12/07 06:39:22;;;;;;;22.00;14.00;;;;;;;10.36;78.01;99003.19;24335;1366;3028501;-65
2021/12/07 06:41:51;;;;;;;22.80;14.70;;;;;;;10.33;78.24;99002.70;24376;1364;3048433;-65
2021/12/07 06:44:20;;;;;;;22.20;14.30;;;;;;;9.97;79.32;99008.16;24349;1361;3029066;-68
2021/12/07 06:46:50;;;;;;;20.20;12.40;;;;;;;9.71;80.32;99009.31;24319;1364;3070237;-68
2021/12/07 06:49:19;;;;;;;18.50;11.70;;;;;;;10.19;79.21;98998.01;24305;1368;3030538;-67
2021/12/07 06:51:48;;;;;;;20.70;11.90;;;;;;;10.61;77.43;98989.79;24327;1364;3026960;-65
2021/12/07 06:54:17;;;;;;;21.10;12.80;;;;;;;10.67;77.12;98991.61;24318;1364;3070826;-66
2021/12/07 07:08:09;;;;;;;19.00;12.40;;;;;;;10.61;77.13;98985.03;7487;1378;3089706;-68
2021/12/07 07:10:38;;;;;;;19.20;12.70;;;;;;;10.33;77.69;98986.90;24197;1369;3027033;-68
2021/12/07 07:13:07;;;;;;;23.50;14.60;;;;;;;10.28;77.99;98988.27;24214;1369;3070704;-65
2021/12/07 07:15:36;;;;;;;21.50;15.10;;;;;;;10.00;79.18;98987.01;24209;1376;3029328;-67
2021/12/07 07:18:20;;;;;;;16.80;11.70;;;;;;;9.88;79.68;98987.06;24247;1373;3054223;-65
2021/12/07 07:20:50;;;;;;;18.80;11.30;;;;;;;10.34;78.75;98986.33;24206;1375;3026559;-69
2021/12/07 07:40:27;;;;;;;25.40;19.10;;;;;;;10.84;75.66;98998.66;30644;1364;3026436;-66
2021/12/07 07:42:56;;;;;;;24.30;18.80;;;;;;;11.51;74.41;98998.23;24223;1364;3026908;-66
2021/12/07 07:45:55;;;;;;;25.90;18.00;;;;;;;11.51;72.89;98995.36;24879;1369;3052566;-68
2021/12/07 07:48:24;;;;;;;27.00;17.70;;;;;;;11.05;74.82;98998.33;24406;1361;3030564;-68
2021/12/07 07:50:53;;;;;;;23.80;15.80;;;;;;;10.69;76.24;98998.33;24440;1360;3051660;-66
2021/12/07 07:53:22;;;;;;;26.20;15.20;;;;;;;10.36;77.18;99003.69;24420;1363;3026118;-68
2021/12/07 07:55:51;;;;;;;19.00;11.50;;;;;;;10.24;78.01;99003.09;24420;1360;3048660;-68
2021/12/07 07:58:20;;;;;;;20.30;11.10;;;;;;;10.50;77.48;99008.01;24427;1360;3029122;-66
2021/12/07 08:00:49;;;;;;;22.80;12.50;;;;;;;10.82;76.04;99001.80;24413;1365;3070685;-68
2021/12/07 08:03:18;;;;;;;23.00;13.50;;;;;;;10.82;75.81;98999.05;24359;1363;3027298;-70
2021/12/07 08:05:47;;;;;;;22.30;14.00;;;;;;;10.68;76.19;98999.60;24406;1363;3029847;-66
2021/12/07 08:08:17;;;;;;;25.20;14.20;;;;;;;10.46;76.97;98997.82;24423;1360;3070608;-69
2021/12/07 08:10:46;;;;;;;20.10;12.30;;;;;;;10.24;77.53;98990.27;24412;1367;3027763;-69
2021/12/07 08:13:16;;;;;;;19.80;11.70;;;;;;;10.05;78.51;98981.58;24437;1364;3049467;-67
2021/12/07 08:15:47;;;;;;;17.20;11.10;;;;;;;10.36;77.74;98975.33;24440;1360;3027649;-66
2021/12/07 08:18:16;;;;;;;21.30;12.70;;;;;;;10.86;76.37;98971.41;24414;1363;3026516;-66
2021/12/07 08:20:45;;;;;;;20.50;13.00;;;;;;;11.00;75.48;98966.20;24421;1363;3026959;-65
2021/12/07 08:23:14;;;;;;;17.90;12.60;;;;;;;10.85;75.67;98967.30;24405;1360;3072538;-66
2021/12/07 08:25:45;;;;;;;20.40;13.40;;;;;;;10.58;76.46;98965.30;24417;1360;3026363;-66
2021/12/07 08:28:17;;;;;;;22.10;13.60;;;;;;;10.38;76.98;98966.23;24443;1360;3050355;-64
2021/12/07 08:30:47;;;;;;;19.40;11.00;;;;;;;10.31;77.19;98959.76;24417;1360;3031068;-69
2021/12/07 08:33:16;;;;;;;15.90;10.10;;;;;;;10.69;76.50;98951.20;24454;1364;3027272;-66
2021/12/07 08:35:45;;;;;;;19.10;11.20;;;;;;;11.06;75.22;98945.52;24412;1365;3027407;-66
2021/12/07 08:38:14;;;;;;;18.40;11.60;;;;;;;11.04;74.85;98945.85;24437;1365;3068116;-69
2021/12/07 08:40:43;;;;;;;20.00;12.90;;;;;;;10.84;75.59;98942.30;24455;1363;3026904;-65
2021/12/07 08:43:12;;;;;;;25.30;13.60;;;;;;;10.60;76.26;98945.20;24446;1358;3050315;-66
2021/12/07 08:45:41;;;;;;;20.70;12.70;;;;;;;10.28;77.68;98942.05;24419;1355;3028788;-66
2021/12/07 08:48:10;;;;;;;17.60;10.70;;;;;;;10.10;78.45;98937.49;24424;1360;3052952;-66
2021/12/07 08:50:41;;;;;;;17.40;9.80;;;;;;;10.53;77.41;98933.02;24455;1361;3026644;-65
2021/12/07 08:53:12;;;;;;;20.60;11.90;;;;;;;10.92;75.96;98919.82;24422;1360;3028990;-69
2021/12/07 09:01:20;;;;;;;19.10;12.70;;;;;;;10.55;76.99;98914.03;24446;1360;3057049;-67
2021/12/07 09:03:50;;;;;;;21.80;13.00;;;;;;;10.27;77.86;98908.88;24444;1362;3026288;-65
2021/12/07 09:06:19;;;;;;;18.20;9.90;;;;;;;10.09;78.98;98914.27;24398;1363;3026491;-68
2021/12/07 09:08:48;;;;;;;16.70;10.40;;;;;;;10.62;77.87;98910.88;24490;1360;3026317;-66
2021/12/07 09:11:18;;;;;;;20.90;12.00;;;;;;;11.14;75.66;98903.91;24420;1361;3054436;-68
2021/12/07 09:13:46;;;;;;;17.70;11.70;;;;;;;11.11;75.35;98902.95;24428;1360;3026019;-67
2021/12/07 09:16:18;;;;;;;21.00;12.50;;;;;;;10.93;75.88;98898.22;24462;1361;3052082;-65
2021/12/07 09:18:47;;;;;;;18.80;12.70;;;;;;;10.56;76.95;98895.72;24474;1363;3029597;-66
2021/12/07 09:21:17;;;;;;;23.10;12.40;;;;;;;10.30;78.13;98897.86;24454;1361;3026447;-67
2021/12/07 09:23:46;;;;;;;19.10;10.30;;;;;;;10.32;77.91;98892.27;24452;1366;3054691;-68
2021/12/07 09:26:16;;;;;;;18.80;10.30;;;;;;;10.77;77.09;98886.71;24472;1360;3028450;-67
2021/12/07 09:28:46;;;;;;;22.10;11.80;;;;;;;11.07;75.78;98875.16;24444;1365;3028589;-67
2021/12/07 09:31:15;;;;;;;22.10;12.40;;;;;;;11.04;75.59;98873.05;24448;1360;3026788;-67
2021/12/07 09:33:44;;;;;;;19.00;11.60;;;;;;;10.92;75.97;98868.34;24472;1360;3058718;-68
2021/12/07 09:36:13;;;;;;;21.30;12.70;;;;;;;10.69;76.72;98859.11;24439;1363;3026220;-68
2021/12/07 09:38:43;;;;;;;24.90;13.40;;;;;;;10.53;77.20;98852.02;24428;1362;3050824;-65
2021/12/07 09:41:12;;;;;;;14.30;9.70;;;;;;;10.38;78.05;98848.64;24440;1360;3029746;-65
2021/12/07 09:43:42;;;;;;;19.50;9.90;;;;;;;10.93;76.59;98842.50;24431;1354;3026780;-64
2021/12/07 09:46:11;;;;;;;19.80;10.70;;;;;;;11.42;74.74;98844.75;24462;1359;3027864;-63
2021/12/07 09:48:41;;;;;;;18.80;11.90;;;;;;;11.47;74.42;98842.08;24419;1361;3058910;-65
2021/12/07 09:51:11;;;;;;;21.00;12.20;;;;;;;11.38;74.55;98836.10;24433;1361;3028886;-63
2021/12/07 09:53:40;;;;;;;21.50;12.00;;;;;;;11.13;75.20;98828.95;24420;1360;3027001;-66
2021/12/07 09:56:09;;;;;;;20.30;12.70;;;;;;;11.01;75.69;98827.02;24478;1360;3026661;-64
2021/12/07 09:58:42;;;;;;;16.90;9.80;;;;;;;10.95;75.83;98826.58;24451;1361;3051232;-67
2021/12/07 10:01:11;;;;;;;22.10;9.50;;;;;;;11.37;75.22;98823.49;24442;1364;3026982;-67
2021/12/07 10:03:40;;;;;;;20.10;10.90;;;;;;;11.80;73.54;98818.04;24458;1360;3026237;-63
2021/12/07 10:06:09;;;;;;;21.20;11.50;;;;;;;11.86;73.16;98808.27;24438;1358;3027002;-64
2021/12/07 10:08:39;;;;;;;23.20;11.50;;;;;;;11.67;73.60;98807.31;24458;1360;3056413;-66
2021/12/07 10:11:09;;;;;;;19.10;10.50;;;;;;;11.54;73.84;98802.64;24461;1363;3026732;-65
2021/12/07 10:13:41;;;;;;;23.10;11.80;;;;;;;11.36;74.43;98801.90;24417;1361;3051580;-64
2021/12/07 10:16:12;;;;;;;18.80;10.20;;;;;;;11.18;75.09;98800.91;24423;1360;3027103;-65
2021/12/07 10:18:42;;;;;;;15.70;9.30;;;;;;;11.06;75.60;98801.81;24459;1360;3029431;-63
2021/12/07 10:21:26;;;;;;;13.80;8.60;;;;;;;11.53;74.33;98796.02;24383;1361;3071173;-66
2021/12/07 10:24:00;;;;;;;17.70;10.50;;;;;;;12.06;72.59;98790.80;24438;1360;3049551;-62
2021/12/07 10:26:34;;;;;;;18.10;10.90;;;;;;;12.04;72.10;98783.98;24471;1359;3055060;-67
2021/12/07 10:29:10;;;;;;;15.20;10.20;;;;;;;11.90;72.58;98787.15;24448;1364;3052658;-66
2021/12/07 10:31:43;;;;;;;18.00;10.30;;;;;;;11.63;73.05;98787.89;24446;1361;3057279;-63
2021/12/07 10:34:17;;;;;;;20.20;10.50;;;;;;;11.42;73.87;98789.02;24453;1361;3026937;-64
2021/12/07 10:36:56;;;;;;;;;;;;;;;11.27;74.21;98788.71;24502;1361;3054988;-62
2021/12/07 10:39:33;;;;;;;14.30;9.00;;;;;;;11.06;75.05;98787.76;24440;1353;3049828;-69
2021/12/07 10:42:06;;;;;;;13.70;7.50;;;;;;;11.02;75.47;98787.19;24388;1359;3071823;-61
2021/12/07 10:44:39;;;;;;;12.80;6.60;;;;;;;11.69;73.92;98775.71;24420;1364;3027278;-67
2021/12/07 10:47:09;;;;;;;17.50;8.30;;;;;;;12.23;71.44;98764.91;24444;1360;3029300;-64
2021/12/07 10:49:50;;;;;;;18.60;9.80;;;;;;;12.29;71.20;98768.86;24427;1361;3027125;-65
2021/12/07 10:52:30;;;;;;;16.70;9.60;;;;;;;12.06;71.74;98762.77;24456;1361;3056294;-68
2021/12/07 10:55:18;;;;;;;16.00;9.80;;;;;;;11.92;72.28;98762.75;24410;1360;3052580;-66
2021/12/07 10:57:54;;;;;;;16.50;9.90;;;;;;;11.70;72.91;98760.75;24442;1360;3055933;-65
2021/12/07 11:00:23;;;;;;;16.10;9.60;;;;;;;11.57;73.48;98762.26;24368;1361;3050966;-68
2021/12/07 11:02:58;;;;;;;11.90;7.50;;;;;;;11.38;74.33;98757.18;24414;1365;3026876;-62
2021/12/07 11:05:38;;;;;;;14.90;7.90;;;;;;;11.95;72.93;98749.01;24432;1358;3053683;-66
2021/12/07 11:08:08;;;;;;;17.10;7.70;;;;;;;12.43;71.16;98738.27;24440;1361;3053963;-65
2021/12/07 11:13:33;;;;;;;17.20;9.20;;;;;;;12.46;70.76;98740.95;30845;1356;3026161;-66
2021/12/07 11:16:06;;;;;;;18.20;12.10;;;;;;;12.62;70.38;98737.40;24417;1357;3052322;-66
2021/12/07 11:18:42;;;;;;;15.50;9.30;;;;;;;12.66;70.11;98738.50;24422;1358;3052686;-65
2021/12/07 11:21:12;;;;;;;19.40;9.40;;;;;;;12.34;71.08;98735.83;24423;1357;3054921;-62
2021/12/07 11:23:53;;;;;;;14.20;7.40;;;;;;;12.24;71.54;98730.98;24439;1357;3028317;-63
2021/12/07 11:31:51;;;;;;;13.30;7.60;;;;;;;13.24;68.04;98723.21;24465;1363;3071624;-67
2021/12/07 11:34:26;;;;;;;11.70;7.50;;;;;;;12.93;68.80;98728.91;24485;1356;3048975;-64
2021/12/07 11:37:03;;;;;;;13.60;7.80;;;;;;;12.74;69.49;98734.53;24490;1354;3052018;-67
2021/12/07 11:39:36;;;;;;;16.10;8.50;;;;;;;12.57;70.26;98735.54;24468;1355;3052508;-64
2021/12/07 11:42:25;;;;;;;15.40;8.80;;;;;;;12.36;70.81;98729.65;24478;1357;3058875;-64
2021/12/07 11:45:25;;;;;;;21.00;8.40;;;;;;;12.11;71.63;98729.83;24501;1355;3052789;-63
2021/12/07 11:47:55;;;;;;;14.00;6.70;;;;;;;12.00;71.95;98732.48;24495;1357;3055888;-65
2021/12/07 11:50:29;;;;;;;14.10;6.20;;;;;;;12.66;70.37;98727.84;24486;1355;3026637;-66
2021/12/07 11:53:03;;;;;;;11.00;7.20;;;;;;;13.13;68.71;98732.43;24451;1357;3069047;-64
2021/12/07 11:55:33;;;;;;;13.10;7.10;;;;;;;13.06;68.16;98723.11;24518;1358;3050982;-63
2021/12/07 11:58:04;;;;;;;10.80;6.60;;;;;;;12.97;68.60;98718.80;24444;1358;3026876;-61
2021/12/07 12:00:39;;;;;;;11.80;7.70;;;;;;;12.83;69.10;98717.30;24533;1355;3026618;-64
2021/12/07 12:03:11;;;;;;;14.30;8.10;;;;;;;12.64;69.59;98716.34;24459;1355;3058760;-62
2021/12/07 12:05:41;;;;;;;13.50;8.10;;;;;;;12.40;70.65;98716.20;24462;1361;3027522;-65
2021/12/07 12:08:10;;;;;;;17.20;7.80;;;;;;;12.29;70.95;98714.59;24453;1357;3029148;-65
2021/12/07 12:10:41;;;;;;;15.90;7.80;;;;;;;12.18;71.26;98717.95;24442;1358;3027654;-64
2021/12/07 12:13:29;;;;;;;10.40;6.60;;;;;;;12.08;71.91;98720.42;24383;1357;3029874;-64
2021/12/07 12:16:15;;;;;;;9.80;6.00;;;;;;;12.76;70.12;98713.83;24465;1357;3049812;-64
2021/12/07 12:19:02;;;;;;;12.40;7.10;;;;;;;13.34;68.51;98707.08;24453;1358;3054862;-66
2021/12/07 12:21:37;;;;;;;12.30;7.30;;;;;;;13.28;68.17;98705.14;24461;1357;3055759;-67
2021/12/07 12:24:05;;;;;;;;;;;;;;;13.11;68.40;98704.79;24455;1360;3056226;-64
2021/12/07 12:26:35;;;;;;;21.90;9.10;;;;;;;12.85;68.97;98706.95;24465;1354;3026338;-66
2021/12/07 12:29:21;;;;;;;16.10;8.60;;;;;;;12.61;69.57;98706.43;24505;1347;3052492;-66
2021/12/07 12:31:52;;;;;;;15.70;8.70;;;;;;;12.44;70.21;98706.92;24468;1350;3054949;-61
2021/12/07 12:34:24;;;;;;;16.40;8.70;;;;;;;12.31;70.73;98706.55;24466;1354;3029889;-64
2021/12/07 12:37:00;;;;;;;10.20;5.90;;;;;;;12.15;71.37;98706.38;24459;1354;3026922;-64
2021/12/07 12:39:51;;;;;;;10.20;5.40;;;;;;;12.68;70.18;98707.79;24451;1355;3052609;-66
2021/12/07 12:42:41;;;;;;;18.70;7.20;;;;;;;13.20;68.29;98702.86;24477;1355;3071207;-67
2021/12/07 12:45:21;;;;;;;13.00;6.60;;;;;;;13.25;67.51;98706.29;24472;1355;3049237;-61
2021/12/07 12:48:04;;;;;;;13.60;7.60;;;;;;;13.07;68.21;98708.34;24478;1356;3052474;-66
2021/12/07 12:50:42;;;;;;;11.60;7.20;;;;;;;12.86;68.51;98705.77;24510;1354;3055760;-62
2021/12/07 12:53:15;;;;;;;19.20;7.20;;;;;;;12.67;69.27;98702.61;24457;1355;3056414;-65
2021/12/07 12:55:45;;;;;;;15.20;7.50;;;;;;;12.47;69.83;98701.90;24435;1355;3027010;-62
2021/12/07 12:58:42;;;;;;;13.60;7.90;;;;;;;12.34;70.16;98700.33;24483;1354;3028858;-64
2021/12/07 13:01:14;;;;;;;12.60;7.90;;;;;;;12.16;70.74;98703.17;24512;1354;3050330;-62
2021/12/07 13:03:43;;;;;;;11.00;6.20;;;;;;;12.04;70.97;98708.30;24474;1354;3026550;-63
2021/12/07 13:06:17;;;;;;;13.00;6.10;;;;;;;12.56;69.66;98701.77;24507;1357;3028455;-66
2021/12/07 13:09:00;;;;;;;13.80;7.50;;;;;;;13.10;68.17;98699.98;24516;1354;3054629;-62
2021/12/07 13:11:35;;;;;;;13.10;7.30;;;;;;;13.14;67.54;98703.86;24444;1354;3052906;-67
2021/12/07 13:14:07;;;;;;;14.80;9.10;;;;;;;12.99;67.99;98702.59;24444;1357;3056297;-66
2021/12/07 13:16:38;;;;;;;17.60;10.70;;;;;;;12.77;68.81;98703.03;24482;1357;3027851;-62
2021/12/07 13:19:08;;;;;;;20.00;12.20;;;;;;;12.57;69.31;98707.98;24473;1361;3026601;-65
2021/12/07 13:21:41;;;;;;;18.30;11.90;;;;;;;12.39;70.05;98706.09;24479;1357;3027565;-64
2021/12/07 13:24:12;;;;;;;16.70;10.80;;;;;;;12.19;70.75;98707.48;24489;1350;3068816;-62
2021/12/07 13:26:44;;;;;;;19.70;12.10;;;;;;;11.98;71.62;98703.30;24478;1357;3027692;-63
2021/12/07 13:29:17;;;;;;;18.50;8.80;;;;;;;11.85;72.28;98700.64;24490;1354;3026712;-61
2021/12/07 13:31:54;;;;;;;17.90;9.10;;;;;;;12.38;71.30;98692.10;24459;1358;3055627;-65
2021/12/07 13:34:24;;;;;;;;;;;;;;;12.91;69.25;98697.50;24495;1354;3056218;-66
2021/12/07 13:37:01;;;;;;;23.30;9.30;;;;;;;12.89;68.93;98694.84;24424;1354;3026903;-65
2021/12/07 13:40:07;;;;;;;23.20;10.80;;;;;;;12.74;69.04;98699.79;24467;1354;3052732;-65
2021/12/07 13:42:37;;;;;;;17.50;9.50;;;;;;;12.36;70.35;98704.40;24460;1354;3053004;-61
2021/12/07 13:45:09;;;;;;;18.80;11.80;;;;;;;12.10;71.12;98698.55;24431;1361;3026460;-67
2021/12/07 13:47:43;;;;;;;26.20;13.60;;;;;;;11.95;71.42;98700.61;24485;1360;3053097;-65
2021/12/07 13:50:24;;;;;;;25.80;13.80;;;;;;;11.78;71.96;98697.29;24444;1357;3054966;-65
2021/12/07 13:52:53;;;;;;;23.30;9.50;;;;;;;11.59;72.89;98698.96;24479;1354;3068435;-68
2021/12/07 13:55:27;;;;;;;21.30;9.60;;;;;;;12.09;71.86;98697.05;24496;1355;3026475;-66
2021/12/07 13:57:59;;;;;;;24.40;10.90;;;;;;;12.41;70.43;98699.95;24455;1358;3052002;-66
2021/12/07 14:00:33;;;;;;;17.90;8.90;;;;;;;12.43;70.04;98693.84;24507;1354;3030125;-65
2021/12/07 14:03:05;;;;;;;22.30;8.80;;;;;;;12.22;70.37;98689.53;24494;1358;3058776;-65
2021/12/07 14:05:36;;;;;;;16.40;8.60;;;;;;;11.97;70.86;98692.01;24480;1356;3028831;-66
2021/12/07 14:08:07;;;;;;;14.00;8.50;;;;;;;11.71;71.65;98696.66;24622;1354;3026804;-63
2021/12/07 14:10:47;;;;;;;16.90;8.00;;;;;;;11.51;72.14;98693.77;24501;1354;3026810;-64
2021/12/07 14:13:16;;;;;;;19.50;8.50;;;;;;;11.26;73.02;98696.35;24426;1355;3068850;-66
2021/12/07 14:15:47;;;;;;;14.80;6.30;;;;;;;11.15;73.65;98697.77;24488;1358;3028184;-66
2021/12/07 14:18:18;;;;;;;13.80;6.10;;;;;;;11.68;72.23;98693.12;24499;1360;3027010;-65